createdAt,value
2023-04-18T00:00:36.171Z,1007.1
2023-04-18T00:01:53.263Z,1007
2023-04-18T00:03:10.399Z,1007.1
2023-04-18T00:04:27.344Z,1007
2023-04-18T00:05:44.189Z,1007.1
2023-04-18T00:07:01.223Z,1007.1
2023-04-18T00:08:18.208Z,1007.1
2023-04-18T00:09:35.228Z,1007.1
2023-04-18T00:10:52.181Z,1007.1
2023-04-18T00:12:09.184Z,1007.1
2023-04-18T00:13:26.209Z,1007.1
2023-04-18T00:14:43.220Z,1007.1
2023-04-18T00:16:00.183Z,1007.1
2023-04-18T00:17:17.187Z,1007.1
2023-04-18T00:18:34.208Z,1007.1
2023-04-18T00:19:51.505Z,1007.1
2023-04-18T00:21:08.226Z,1007.1
2023-04-18T00:22:25.184Z,1007.1
2023-04-18T00:23:42.219Z,1007.1
2023-04-18T00:24:59.199Z,1007.1
2023-04-18T00:26:16.178Z,1007.1
2023-04-18T00:27:33.210Z,1007.1
2023-04-18T00:28:50.267Z,1007.1
2023-04-18T00:30:07.247Z,1007.1
2023-04-18T00:31:24.232Z,1007.1
2023-04-18T00:32:41.257Z,1007.1
2023-04-18T00:33:58.242Z,1007.1
2023-04-18T00:35:15.209Z,1007.1
2023-04-18T00:36:32.204Z,1007.1
2023-04-18T00:37:49.206Z,1007.1
2023-04-18T00:39:06.238Z,1007.1
2023-04-18T00:40:23.292Z,1007
2023-04-18T00:41:40.216Z,1007.1
2023-04-18T00:42:57.228Z,1007
2023-04-18T00:44:14.508Z,1007
2023-04-18T00:45:32.444Z,1007
2023-04-18T00:46:49.237Z,1007.1
2023-04-18T00:48:06.300Z,1007
2023-04-18T00:49:23.234Z,1007
2023-04-18T00:50:40.294Z,1007
2023-04-18T00:51:57.243Z,1007
2023-04-18T00:53:14.230Z,1007
2023-04-18T00:54:31.240Z,1007
2023-04-18T00:55:48.269Z,1007
2023-04-18T00:57:05.252Z,1007
2023-04-18T00:58:22.232Z,1007
2023-04-18T00:59:39.265Z,1006.9
2023-04-18T01:00:56.447Z,1006.9
2023-04-18T01:02:13.279Z,1006.9
2023-04-18T01:03:30.534Z,1006.9
2023-04-18T01:04:47.566Z,1006.8
2023-04-18T01:06:04.257Z,1006.8
2023-04-18T01:07:21.289Z,1006.9
2023-04-18T01:08:38.322Z,1006.9
2023-04-18T01:09:55.481Z,1006.9
2023-04-18T01:11:12.260Z,1006.9
2023-04-18T01:12:29.259Z,1006.9
2023-04-18T01:13:46.287Z,1006.9
2023-04-18T01:15:03.278Z,1006.9
2023-04-18T01:16:20.368Z,1006.9
2023-04-18T01:17:37.293Z,1006.9
2023-04-18T01:18:54.292Z,1007
2023-04-18T01:20:11.295Z,1006.9
2023-04-18T01:21:28.487Z,1007
2023-04-18T01:22:45.277Z,1006.9
2023-04-18T01:24:02.313Z,1006.9
2023-04-18T01:25:19.323Z,1006.9
2023-04-18T01:26:36.293Z,1006.9
2023-04-18T01:27:53.320Z,1006.9
2023-04-18T01:29:10.296Z,1006.9
2023-04-18T01:30:27.318Z,1006.9
2023-04-18T01:31:44.403Z,1006.9
2023-04-18T01:33:01.351Z,1007
2023-04-18T01:34:18.384Z,1006.9
2023-04-18T01:35:35.289Z,1006.9
2023-04-18T01:36:52.309Z,1006.9
2023-04-18T01:38:09.307Z,1007
2023-04-18T01:39:26.346Z,1006.9
2023-04-18T01:40:43.326Z,1006.9
2023-04-18T01:42:00.321Z,1006.9
2023-04-18T01:43:17.308Z,1006.9
2023-04-18T01:44:34.377Z,1006.9
2023-04-18T01:45:51.302Z,1006.9
2023-04-18T01:47:08.335Z,1006.9
2023-04-18T01:48:25.310Z,1006.9
2023-04-18T01:49:42.344Z,1006.9
2023-04-18T01:50:59.321Z,1006.9
2023-04-18T01:52:16.337Z,1006.9
2023-04-18T01:53:33.374Z,1006.9
2023-04-18T01:54:50.389Z,1006.9
2023-04-18T01:56:07.327Z,1006.9
2023-04-18T01:57:24.360Z,1006.9
2023-04-18T01:58:41.354Z,1006.9
2023-04-18T01:59:58.366Z,1006.9
2023-04-18T02:01:15.360Z,1006.9
2023-04-18T02:02:32.439Z,1006.9
2023-04-18T02:03:49.472Z,1006.9
2023-04-18T02:05:06.347Z,1006.9
2023-04-18T02:06:23.352Z,1006.9
2023-04-18T02:07:40.380Z,1006.9
2023-04-18T02:08:57.411Z,1006.9
2023-04-18T02:10:14.741Z,1006.9
2023-04-18T02:11:31.415Z,1006.9
2023-04-18T02:12:48.376Z,1006.9
2023-04-18T02:14:05.370Z,1006.9
2023-04-18T02:15:22.387Z,1006.9
2023-04-18T02:16:39.369Z,1006.9
2023-04-18T02:17:56.384Z,1006.9
2023-04-18T02:19:13.429Z,1006.9
2023-04-18T02:20:30.424Z,1006.8
2023-04-18T02:21:47.364Z,1006.8
2023-04-18T02:23:04.363Z,1006.8
2023-04-18T02:24:21.355Z,1006.8
2023-04-18T02:25:38.425Z,1006.8
2023-04-18T02:26:55.369Z,1006.8
2023-04-18T02:28:12.383Z,1006.8
2023-04-18T02:29:29.378Z,1006.9
2023-04-18T02:30:46.427Z,1006.9
2023-04-18T02:32:03.413Z,1006.8
2023-04-18T02:33:20.481Z,1006.8
2023-04-18T02:34:37.427Z,1006.9
2023-04-18T02:35:54.407Z,1006.8
2023-04-18T02:37:11.408Z,1006.8
2023-04-18T02:38:28.388Z,1006.8
2023-04-18T02:39:45.396Z,1006.8
2023-04-18T02:41:02.410Z,1006.9
2023-04-18T02:42:19.397Z,1006.8
2023-04-18T02:43:36.396Z,1006.9
2023-04-18T02:44:53.416Z,1006.9
2023-04-18T02:46:10.504Z,1006.9
2023-04-18T02:47:27.412Z,1006.9
2023-04-18T02:48:44.422Z,1006.9
2023-04-18T02:50:01.481Z,1006.9
2023-04-18T02:51:18.416Z,1006.9
2023-04-18T02:52:35.520Z,1006.9
2023-04-18T02:53:52.423Z,1006.9
2023-04-18T02:55:09.425Z,1006.9
2023-04-18T02:56:26.423Z,1006.9
2023-04-18T02:57:43.449Z,1006.9
2023-04-18T02:59:00.436Z,1006.9
2023-04-18T03:00:17.416Z,1006.8
2023-04-18T03:01:34.514Z,1006.8
2023-04-18T03:02:51.530Z,1006.9
2023-04-18T03:04:08.479Z,1006.9
2023-04-18T03:05:25.424Z,1006.9
2023-04-18T03:06:42.428Z,1006.9
2023-04-18T03:07:59.457Z,1006.9
2023-04-18T03:09:16.496Z,1006.9
2023-04-18T03:10:33.435Z,1006.9
2023-04-18T03:11:50.447Z,1006.9
2023-04-18T03:13:07.453Z,1006.9
2023-04-18T03:14:24.522Z,1007
2023-04-18T03:15:41.500Z,1007
2023-04-18T03:16:58.457Z,1006.9
2023-04-18T03:18:15.449Z,1006.9
2023-04-18T03:19:32.470Z,1006.9
2023-04-18T03:20:49.470Z,1006.9
2023-04-18T03:22:06.454Z,1006.9
2023-04-18T03:23:23.444Z,1006.9
2023-04-18T03:24:40.468Z,1006.9
2023-04-18T03:25:57.499Z,1006.9
2023-04-18T03:27:14.471Z,1006.9
2023-04-18T03:28:31.453Z,1006.9
2023-04-18T03:29:48.479Z,1006.9
2023-04-18T03:31:05.531Z,1006.9
2023-04-18T03:32:22.519Z,1006.9
2023-04-18T03:33:39.550Z,1006.9
2023-04-18T03:34:56.497Z,1006.9
2023-04-18T03:36:13.475Z,1006.8
2023-04-18T03:37:30.480Z,1006.8
2023-04-18T03:38:47.502Z,1006.9
2023-04-18T03:40:04.505Z,1006.9
2023-04-18T03:41:21.507Z,1006.9
2023-04-18T03:42:38.551Z,1006.9
2023-04-18T03:43:55.475Z,1006.9
2023-04-18T03:45:12.494Z,1006.9
2023-04-18T03:46:29.561Z,1006.9
2023-04-18T03:47:46.518Z,1006.9
2023-04-18T03:49:03.491Z,1006.9
2023-04-18T03:50:20.674Z,1006.9
2023-04-18T03:51:37.524Z,1006.9
2023-04-18T03:52:54.539Z,1006.9
2023-04-18T03:54:11.774Z,1007
2023-04-18T03:55:28.494Z,1006.9
2023-04-18T03:56:45.554Z,1006.9
2023-04-18T03:58:02.519Z,1006.9
2023-04-18T03:59:19.498Z,1006.9
2023-04-18T04:00:36.514Z,1006.9
2023-04-18T04:01:53.611Z,1006.9
2023-04-18T04:03:10.623Z,1007
2023-04-18T04:04:27.550Z,1007
2023-04-18T04:05:44.557Z,1006.9
2023-04-18T04:07:01.599Z,1007
2023-04-18T04:08:18.523Z,1006.9
2023-04-18T04:09:35.534Z,1006.9
2023-04-18T04:10:52.528Z,1007
2023-04-18T04:12:09.555Z,1007
2023-04-18T04:13:26.543Z,1007
2023-04-18T04:14:43.539Z,1007
2023-04-18T04:16:00.640Z,1007.1
2023-04-18T04:17:17.569Z,1007.1
2023-04-18T04:18:34.545Z,1007.1
2023-04-18T04:19:51.569Z,1007.1
2023-04-18T04:21:08.631Z,1007.1
2023-04-18T04:22:25.627Z,1007.1
2023-04-18T04:23:42.553Z,1007.1
2023-04-18T04:24:59.680Z,1007.1
2023-04-18T04:26:16.561Z,1007.1
2023-04-18T04:27:33.719Z,1007.1
2023-04-18T04:28:50.597Z,1007.1
2023-04-18T04:30:07.561Z,1007.1
2023-04-18T04:31:24.557Z,1007.1
2023-04-18T04:32:41.633Z,1007.1
2023-04-18T04:33:58.589Z,1007.1
2023-04-18T04:35:15.556Z,1007.1
2023-04-18T04:36:32.623Z,1007.1
2023-04-18T04:37:49.566Z,1007.1
2023-04-18T04:39:06.574Z,1007.1
2023-04-18T04:40:23.598Z,1007.2
2023-04-18T04:41:40.887Z,1007.1
2023-04-18T04:42:57.574Z,1007.2
2023-04-18T04:44:14.784Z,1007.2
2023-04-18T04:45:31.636Z,1007.2
2023-04-18T04:46:48.574Z,1007.2
2023-04-18T04:48:05.614Z,1007.2
2023-04-18T04:49:22.591Z,1007.2
2023-04-18T04:50:39.624Z,1007.3
2023-04-18T04:51:56.607Z,1007.3
2023-04-18T04:53:13.669Z,1007.3
2023-04-18T04:54:31.035Z,1007.3
2023-04-18T04:55:47.611Z,1007.3
2023-04-18T04:57:04.593Z,1007.3
2023-04-18T04:58:21.586Z,1007.3
2023-04-18T04:59:38.619Z,1007.3
2023-04-18T05:00:55.606Z,1007.3
2023-04-18T05:02:12.697Z,1007.3
2023-04-18T05:03:29.781Z,1007.3
2023-04-18T05:04:46.600Z,1007.3
2023-04-18T05:06:03.623Z,1007.3
2023-04-18T05:07:20.696Z,1007.3
2023-04-18T05:08:37.640Z,1007.3
2023-04-18T05:09:54.615Z,1007.3
2023-04-18T05:11:11.624Z,1007.4
2023-04-18T05:12:28.639Z,1007.4
2023-04-18T05:13:46.265Z,1007.4
2023-04-18T05:15:02.721Z,1007.4
2023-04-18T05:16:19.659Z,1007.4
2023-04-18T05:17:36.664Z,1007.4
2023-04-18T05:18:53.654Z,1007.4
2023-04-18T05:20:10.623Z,1007.4
2023-04-18T05:21:27.619Z,1007.4
2023-04-18T05:22:44.693Z,1007.4
2023-04-18T05:24:01.731Z,1007.4
2023-04-18T05:25:18.623Z,1007.4
2023-04-18T05:26:35.626Z,1007.4
2023-04-18T05:27:52.658Z,1007.4
2023-04-18T05:29:09.665Z,1007.4
2023-04-18T05:30:26.644Z,1007.5
2023-04-18T05:31:43.650Z,1007.5
2023-04-18T05:33:01.769Z,1007.4
2023-04-18T05:34:18.669Z,1007.5
2023-04-18T05:35:35.671Z,1007.5
2023-04-18T05:36:52.658Z,1007.5
2023-04-18T05:38:09.727Z,1007.5
2023-04-18T05:39:26.668Z,1007.5
2023-04-18T05:40:43.728Z,1007.6
2023-04-18T05:42:00.706Z,1007.6
2023-04-18T05:43:17.659Z,1007.5
2023-04-18T05:44:34.698Z,1007.5
2023-04-18T05:45:51.722Z,1007.5
2023-04-18T05:47:08.740Z,1007.5
2023-04-18T05:48:25.726Z,1007.5
2023-04-18T05:49:42.679Z,1007.5
2023-04-18T05:50:59.785Z,1007.5
2023-04-18T05:52:16.667Z,1007.5
2023-04-18T05:53:33.720Z,1007.5
2023-04-18T05:54:50.683Z,1007.5
2023-04-18T05:56:07.684Z,1007.5
2023-04-18T05:57:24.671Z,1007.5
2023-04-18T05:58:41.770Z,1007.5
2023-04-18T05:59:59.036Z,1007.5
2023-04-18T06:01:16.729Z,1007.5
2023-04-18T06:02:33.870Z,1007.5
2023-04-18T06:03:50.866Z,1007.5
2023-04-18T06:05:08.064Z,1007.5
2023-04-18T06:06:24.754Z,1007.5
2023-04-18T06:07:41.714Z,1007.6
2023-04-18T06:08:59.069Z,1007.6
2023-04-18T06:10:15.922Z,1007.5
2023-04-18T06:11:32.791Z,1007.6
2023-04-18T06:12:49.825Z,1007.6
2023-04-18T06:14:06.753Z,1007.6
2023-04-18T06:15:23.714Z,1007.6
2023-04-18T06:16:40.813Z,1007.6
2023-04-18T06:17:57.748Z,1007.6
2023-04-18T06:19:14.767Z,1007.6
2023-04-18T06:20:31.718Z,1007.7
2023-04-18T06:21:48.767Z,1007.7
2023-04-18T06:23:05.710Z,1007.7
2023-04-18T06:24:22.765Z,1007.7
2023-04-18T06:25:39.722Z,1007.7
2023-04-18T06:26:56.899Z,1007.6
2023-04-18T06:28:13.774Z,1007.7
2023-04-18T06:29:30.753Z,1007.7
2023-04-18T06:30:47.724Z,1007.7
2023-04-18T06:32:04.811Z,1007.7
2023-04-18T06:33:21.744Z,1007.7
2023-04-18T06:34:38.784Z,1007.7
2023-04-18T06:35:55.756Z,1007.7
2023-04-18T06:37:12.772Z,1007.7
2023-04-18T06:38:29.747Z,1007.7
2023-04-18T06:39:46.989Z,1007.7
2023-04-18T06:41:03.816Z,1007.8
2023-04-18T06:42:22.297Z,1007.8
2023-04-18T06:43:37.796Z,1007.8
2023-04-18T06:44:54.754Z,1007.8
2023-04-18T06:46:11.896Z,1007.8
2023-04-18T06:47:28.780Z,1007.8
2023-04-18T06:48:45.783Z,1007.8
2023-04-18T06:50:02.790Z,1007.8
2023-04-18T06:51:19.854Z,1007.9
2023-04-18T06:52:36.758Z,1007.9
2023-04-18T06:53:53.784Z,1007.9
2023-04-18T06:55:10.938Z,1007.9
2023-04-18T06:56:27.806Z,1007.9
2023-04-18T06:57:44.774Z,1008
2023-04-18T06:59:01.791Z,1008
2023-04-18T07:00:18.810Z,1008
2023-04-18T07:01:35.884Z,1008
2023-04-18T07:02:52.937Z,1008
2023-04-18T07:04:09.999Z,1008
2023-04-18T07:05:26.821Z,1007.9
2023-04-18T07:06:43.846Z,1008
2023-04-18T07:08:00.777Z,1008
2023-04-18T07:09:17.791Z,1008
2023-04-18T07:10:34.838Z,1008
2023-04-18T07:11:51.844Z,1008
2023-04-18T07:13:08.775Z,1008.1
2023-04-18T07:14:25.811Z,1008
2023-04-18T07:15:42.801Z,1008
2023-04-18T07:16:59.897Z,1008
2023-04-18T07:18:26.694Z,1008.1
2023-04-18T07:19:33.825Z,1008.1
2023-04-18T07:20:50.810Z,1008.1
2023-04-18T07:22:07.840Z,1008.1
2023-04-18T07:23:24.820Z,1008.1
2023-04-18T07:24:41.844Z,1008
2023-04-18T07:25:58.860Z,1008
2023-04-18T07:27:15.826Z,1008
2023-04-18T07:28:32.822Z,1008
2023-04-18T07:29:49.884Z,1008.1
2023-04-18T07:31:06.873Z,1008.1
2023-04-18T07:32:23.894Z,1008.1
2023-04-18T07:33:40.850Z,1008.1
2023-04-18T07:34:57.872Z,1008.1
2023-04-18T07:36:14.843Z,1008.1
2023-04-18T07:37:31.937Z,1008.1
2023-04-18T07:38:48.836Z,1008.1
2023-04-18T07:40:05.898Z,1008.1
2023-04-18T07:41:22.910Z,1008.2
2023-04-18T07:42:39.831Z,1008.2
2023-04-18T07:43:56.865Z,1008.1
2023-04-18T07:45:13.869Z,1008.1
2023-04-18T07:46:30.898Z,1008.2
2023-04-18T07:47:47.950Z,1008.2
2023-04-18T07:49:04.876Z,1008.2
2023-04-18T07:50:22.061Z,1008.2
2023-04-18T07:51:38.879Z,1008.2
2023-04-18T07:52:55.977Z,1008.2
2023-04-18T07:54:12.880Z,1008.3
2023-04-18T07:55:29.850Z,1008.3
2023-04-18T07:56:47.006Z,1008.3
2023-04-18T07:58:03.843Z,1008.3
2023-04-18T07:59:20.954Z,1008.3
2023-04-18T08:00:37.879Z,1008.3
2023-04-18T08:01:54.920Z,1008.3
2023-04-18T08:03:12.042Z,1008.4
2023-04-18T08:04:30.234Z,1008.4
2023-04-18T08:05:45.917Z,1008.4
2023-04-18T08:07:02.936Z,1008.4
2023-04-18T08:08:19.908Z,1008.4
2023-04-18T08:09:36.867Z,1008.4
2023-04-18T08:10:53.875Z,1008.4
2023-04-18T08:12:11.108Z,1008.4
2023-04-18T08:13:27.907Z,1008.4
2023-04-18T08:14:44.926Z,1008.4
2023-04-18T08:16:02.029Z,1008.4
2023-04-18T08:17:18.936Z,1008.4
2023-04-18T08:18:35.917Z,1008.5
2023-04-18T08:19:53.074Z,1008.4
2023-04-18T08:21:09.925Z,1008.5
2023-04-18T08:22:26.891Z,1008.5
2023-04-18T08:23:43.935Z,1008.5
2023-04-18T08:25:04.773Z,1008.5
2023-04-18T08:26:17.933Z,1008.5
2023-04-18T08:27:34.981Z,1008.5
2023-04-18T08:28:51.929Z,1008.5
2023-04-18T08:30:08.908Z,1008.5
2023-04-18T08:31:26.136Z,1008.5
2023-04-18T08:32:42.935Z,1008.5
2023-04-18T08:33:59.922Z,1008.5
2023-04-18T08:35:16.999Z,1008.5
2023-04-18T08:36:33.995Z,1008.5
2023-04-18T08:37:50.931Z,1008.6
2023-04-18T08:39:07.960Z,1008.6
2023-04-18T08:40:24.930Z,1008.6
2023-04-18T08:41:41.964Z,1008.6
2023-04-18T08:42:59.051Z,1008.6
2023-04-18T08:44:16.037Z,1008.6
2023-04-18T08:45:32.995Z,1008.6
2023-04-18T08:46:50.008Z,1008.6
2023-04-18T08:48:06.993Z,1008.7
2023-04-18T08:49:23.941Z,1008.6
2023-04-18T08:50:40.939Z,1008.7
2023-04-18T08:51:57.971Z,1008.7
2023-04-18T08:53:14.952Z,1008.7
2023-04-18T08:54:31.943Z,1008.6
2023-04-18T08:55:49.007Z,1008.6
2023-04-18T08:57:06.076Z,1008.6
2023-04-18T08:58:23.220Z,1008.6
2023-04-18T08:59:39.997Z,1008.6
2023-04-18T09:00:56.992Z,1008.6
2023-04-18T09:02:13.984Z,1008.6
2023-04-18T09:03:31.025Z,1008.6
2023-04-18T09:04:47.972Z,1008.6
2023-04-18T09:06:04.997Z,1008.7
2023-04-18T09:07:21.989Z,1008.6
2023-04-18T09:08:38.994Z,1008.7
2023-04-18T09:09:55.972Z,1008.6
2023-04-18T09:11:13.007Z,1008.7
2023-04-18T09:12:29.960Z,1008.7
2023-04-18T09:13:47.219Z,1008.7
2023-04-18T09:15:03.990Z,1008.7
2023-04-18T09:16:20.995Z,1008.7
2023-04-18T09:17:38.024Z,1008.7
2023-04-18T09:18:55.019Z,1008.7
2023-04-18T09:20:11.990Z,1008.7
2023-04-18T09:21:29.030Z,1008.7
2023-04-18T09:22:45.982Z,1008.6
2023-04-18T09:24:02.996Z,1008.6
2023-04-18T09:25:20.005Z,1008.6
2023-04-18T09:26:37.061Z,1008.6
2023-04-18T09:27:54.032Z,1008.6
2023-04-18T09:29:11.042Z,1008.6
2023-04-18T09:30:28.622Z,1008.6
2023-04-18T09:31:46.043Z,1008.6
2023-04-18T09:33:05.820Z,1008.6
2023-04-18T09:34:22.999Z,1008.6
2023-04-18T09:35:40.023Z,1008.6
2023-04-18T09:36:57.086Z,1008.6
2023-04-18T09:38:14.029Z,1008.6
2023-04-18T09:39:31.061Z,1008.6
2023-04-18T09:40:48.151Z,1008.7
2023-04-18T09:42:05.102Z,1008.6
2023-04-18T09:43:22.057Z,1008.6
2023-04-18T09:44:39.042Z,1008.6
2023-04-18T09:45:56.036Z,1008.6
2023-04-18T09:47:13.076Z,1008.6
2023-04-18T09:48:30.055Z,1008.6
2023-04-18T09:49:47.019Z,1008.5
2023-04-18T09:51:04.046Z,1008.5
2023-04-18T09:52:21.182Z,1008.5
2023-04-18T09:53:38.035Z,1008.5
2023-04-18T09:54:55.093Z,1008.5
2023-04-18T09:56:12.164Z,1008.5
2023-04-18T09:57:29.030Z,1008.5
2023-04-18T09:58:46.604Z,1008.6
2023-04-18T10:00:04.307Z,1008.6
2023-04-18T10:01:21.180Z,1008.6
2023-04-18T10:02:38.209Z,1008.6
2023-04-18T10:03:55.192Z,1008.5
2023-04-18T10:05:12.141Z,1008.6
2023-04-18T10:06:29.044Z,1008.6
2023-04-18T10:07:46.121Z,1008.5
2023-04-18T10:09:03.066Z,1008.6
2023-04-18T10:10:20.071Z,1008.6
2023-04-18T10:11:37.069Z,1008.6
2023-04-18T10:12:54.101Z,1008.6
2023-04-18T10:14:11.088Z,1008.6
2023-04-18T10:15:28.196Z,1008.6
2023-04-18T10:16:45.137Z,1008.6
2023-04-18T10:18:05.548Z,1008.5
2023-04-18T10:19:19.056Z,1008.5
2023-04-18T10:20:36.289Z,1008.5
2023-04-18T10:21:53.116Z,1008.5
2023-04-18T10:23:10.088Z,1008.6
2023-04-18T10:24:27.102Z,1008.6
2023-04-18T10:25:44.184Z,1008.5
2023-04-18T10:27:01.175Z,1008.5
2023-04-18T10:28:18.174Z,1008.5
2023-04-18T10:29:35.101Z,1008.6
2023-04-18T10:30:52.499Z,1008.6
2023-04-18T10:32:10.101Z,1008.6
2023-04-18T10:33:31.554Z,1008.6
2023-04-18T10:34:44.173Z,1008.4
2023-04-18T10:36:01.097Z,1008.4
2023-04-18T10:37:18.120Z,1008.5
2023-04-18T10:38:35.112Z,1008.5
2023-04-18T10:39:52.699Z,1008.5
2023-04-18T10:41:10.115Z,1008.5
2023-04-18T10:42:27.105Z,1008.5
2023-04-18T10:43:44.139Z,1008.5
2023-04-18T10:45:01.335Z,1008.5
2023-04-18T10:46:30.851Z,1008.5
2023-04-18T10:47:35.290Z,1008.6
2023-04-18T10:48:52.144Z,1008.5
2023-04-18T10:50:09.208Z,1008.5
2023-04-18T10:51:26.137Z,1008.5
2023-04-18T10:52:43.162Z,1008.5
2023-04-18T10:54:02.506Z,1008.5
2023-04-18T10:55:17.154Z,1008.5
2023-04-18T10:56:34.136Z,1008.5
2023-04-18T10:57:51.175Z,1008.5
2023-04-18T10:59:08.122Z,1008.5
2023-04-18T11:00:25.160Z,1008.5
2023-04-18T11:01:42.344Z,1008.5
2023-04-18T11:02:59.376Z,1008.5
2023-04-18T11:04:16.342Z,1008.5
2023-04-18T11:05:33.162Z,1008.5
2023-04-18T11:06:50.163Z,1008.5
2023-04-18T11:08:07.175Z,1008.5
2023-04-18T11:09:24.196Z,1008.6
2023-04-18T11:10:41.182Z,1008.6
2023-04-18T11:11:58.180Z,1008.5
2023-04-18T11:13:15.178Z,1008.5
2023-04-18T11:14:32.245Z,1008.5
2023-04-18T11:15:52.451Z,1008.5
2023-04-18T11:17:10.540Z,1008.5
2023-04-18T11:18:28.364Z,1008.5
2023-04-18T11:19:45.708Z,1008.5
2023-04-18T11:21:04.269Z,1008.5
2023-04-18T11:22:21.760Z,1008.5
2023-04-18T11:23:39.442Z,1008.5
2023-04-18T11:24:57.757Z,1008.4
2023-04-18T11:26:15.706Z,1008.4
2023-04-18T11:27:33.334Z,1008.4
2023-04-18T11:28:52.564Z,1008.4
2023-04-18T11:30:09.226Z,1008.4
2023-04-18T11:31:26.298Z,1008.3
2023-04-18T11:32:43.315Z,1008.4
2023-04-18T11:34:00.194Z,1008.3
2023-04-18T11:35:17.201Z,1008.3
2023-04-18T11:36:34.390Z,1008.3
2023-04-18T11:37:51.210Z,1008.3
2023-04-18T11:39:08.218Z,1008.3
2023-04-18T11:40:25.275Z,1008.3
2023-04-18T11:41:42.222Z,1008.3
2023-04-18T11:42:59.199Z,1008.3
2023-04-18T11:44:16.226Z,1008.3
2023-04-18T11:45:33.352Z,1008.3
2023-04-18T11:46:50.237Z,1008.2
2023-04-18T11:48:07.284Z,1008.3
2023-04-18T11:49:24.235Z,1008.3
2023-04-18T11:50:41.281Z,1008.3
2023-04-18T11:51:58.321Z,1008.3
2023-04-18T11:53:15.232Z,1008.3
2023-04-18T11:54:32.226Z,1008.3
2023-04-18T11:55:49.311Z,1008.3
2023-04-18T11:57:06.278Z,1008.3
2023-04-18T11:58:23.226Z,1008.3
2023-04-18T11:59:40.254Z,1008.3
2023-04-18T12:00:57.449Z,1008.3
2023-04-18T12:02:16.919Z,1008.4
2023-04-18T12:03:32.379Z,1008.3
2023-04-18T12:04:49.400Z,1008.3
2023-04-18T12:06:06.378Z,1008.3
2023-04-18T12:07:23.228Z,1008.3
2023-04-18T12:08:40.299Z,1008.3
2023-04-18T12:09:57.254Z,1008.3
2023-04-18T12:11:14.225Z,1008.3
2023-04-18T12:12:31.259Z,1008.3
2023-04-18T12:13:48.601Z,1008.3
2023-04-18T12:15:05.310Z,1008.3
2023-04-18T12:16:22.290Z,1008.3
2023-04-18T12:17:39.338Z,1008.2
2023-04-18T12:18:56.326Z,1008.2
2023-04-18T12:20:13.295Z,1008.2
2023-04-18T12:21:30.292Z,1008.3
2023-04-18T12:22:47.341Z,1008.3
2023-04-18T12:24:04.356Z,1008.3
2023-04-18T12:25:23.493Z,1008.2
2023-04-18T12:26:39.485Z,1008.3
2023-04-18T12:27:59.122Z,1008.3
2023-04-18T12:29:15.398Z,1008.3
2023-04-18T12:30:35.372Z,1008.3
2023-04-18T12:31:52.530Z,1008.3
2023-04-18T12:33:10.468Z,1008.2
2023-04-18T12:34:31.326Z,1008.3
2023-04-18T12:35:50.619Z,1008.3
2023-04-18T12:37:07.658Z,1008.3
2023-04-18T12:38:24.380Z,1008.2
2023-04-18T12:39:41.285Z,1008.1
2023-04-18T12:40:58.279Z,1008.2
2023-04-18T12:42:15.332Z,1008.2
2023-04-18T12:43:32.294Z,1008.2
2023-04-18T12:44:49.339Z,1008.2
2023-04-18T12:46:06.296Z,1008.1
2023-04-18T12:47:23.303Z,1008.2
2023-04-18T12:48:40.303Z,1008.2
2023-04-18T12:49:57.345Z,1008.2
2023-04-18T12:51:14.299Z,1008.2
2023-04-18T12:52:31.321Z,1008.2
2023-04-18T12:53:48.314Z,1008.2
2023-04-18T12:55:05.294Z,1008.2
2023-04-18T12:56:22.312Z,1008.2
2023-04-18T12:57:39.345Z,1008.2
2023-04-18T12:58:56.310Z,1008.2
2023-04-18T13:00:13.502Z,1008.2
2023-04-18T13:01:30.407Z,1008.2
2023-04-18T13:02:48.476Z,1008.2
2023-04-18T13:04:12.175Z,1008.2
2023-04-18T13:05:22.438Z,1008.1
2023-04-18T13:06:39.319Z,1008.1
2023-04-18T13:08:05.058Z,1008.1
2023-04-18T13:09:13.616Z,1008.1
2023-04-18T13:10:30.369Z,1008.1
2023-04-18T13:11:49.491Z,1008.1
2023-04-18T13:13:04.336Z,1008.1
2023-04-18T13:14:21.744Z,1008.1
2023-04-18T13:15:39.420Z,1008.1
2023-04-18T13:16:56.375Z,1008.1
2023-04-18T13:18:13.386Z,1008.1
2023-04-18T13:19:30.391Z,1008.1
2023-04-18T13:20:47.398Z,1008.1
2023-04-18T13:22:04.365Z,1008.1
2023-04-18T13:23:21.384Z,1008.1
2023-04-18T13:24:38.370Z,1008.1
2023-04-18T13:25:55.356Z,1008.1
2023-04-18T13:27:12.357Z,1008.1
2023-04-18T13:28:29.409Z,1008.1
2023-04-18T13:29:46.400Z,1008.2
2023-04-18T13:31:03.417Z,1008.1
2023-04-18T13:32:20.419Z,1008.1
2023-04-18T13:33:37.440Z,1008.1
2023-04-18T13:34:54.357Z,1008.2
2023-04-18T13:36:11.398Z,1008.2
2023-04-18T13:37:28.415Z,1008.1
2023-04-18T13:38:45.398Z,1008.1
2023-04-18T13:40:02.417Z,1008.1
2023-04-18T13:42:59.445Z,1008.1
2023-04-18T13:44:16.412Z,1008.1
2023-04-18T13:45:33.384Z,1008.2
2023-04-18T13:46:50.374Z,1008.1
2023-04-18T13:48:07.414Z,1008.2
2023-04-18T13:49:24.415Z,1008.2
2023-04-18T13:50:41.389Z,1008.2
2023-04-18T13:51:58.548Z,1008.2
2023-04-18T13:53:15.397Z,1008.2
2023-04-18T13:54:32.436Z,1008.2
2023-04-18T13:55:49.431Z,1008.2
2023-04-18T13:57:06.424Z,1008.2
2023-04-18T13:58:23.447Z,1008.2
2023-04-18T13:59:40.410Z,1008.2
2023-04-18T14:00:57.437Z,1008.2
2023-04-18T14:02:14.572Z,1008.2
2023-04-18T14:03:31.529Z,1008.1
2023-04-18T14:04:48.584Z,1008.1
2023-04-18T14:06:05.409Z,1008.1
2023-04-18T14:07:22.470Z,1008.1
2023-04-18T14:08:39.440Z,1008.1
2023-04-18T14:09:56.443Z,1008.1
2023-04-18T14:11:13.426Z,1008.2
2023-04-18T14:14:04.541Z,1008.1
2023-04-18T14:17:07.462Z,1008.1
2023-04-18T14:18:24.457Z,1008.1
2023-04-18T14:19:41.462Z,1008.1
2023-04-18T14:20:58.457Z,1008.1
2023-04-18T14:22:15.457Z,1008.1
2023-04-18T14:23:32.489Z,1008.1
2023-04-18T14:24:49.481Z,1008.1
2023-04-18T14:26:06.488Z,1008.1
2023-04-18T14:27:23.463Z,1008.1
2023-04-18T14:28:40.447Z,1008.1
2023-04-18T14:29:57.525Z,1008.1
2023-04-18T14:31:14.537Z,1008.1
2023-04-18T14:32:31.466Z,1008.2
2023-04-18T14:33:48.497Z,1008.2
2023-04-18T14:35:05.511Z,1008.1
2023-04-18T14:36:22.546Z,1008.1
2023-04-18T14:37:39.495Z,1008.1
2023-04-18T14:38:56.510Z,1008
2023-04-18T14:40:13.518Z,1008.1
2023-04-18T14:41:30.504Z,1008.1
2023-04-18T14:42:47.482Z,1008.1
2023-04-18T14:44:04.509Z,1008.1
2023-04-18T14:45:21.527Z,1008.1
2023-04-18T14:46:38.593Z,1008.1
2023-04-18T14:47:55.632Z,1008
2023-04-18T14:49:12.624Z,1008
2023-04-18T14:50:29.486Z,1008.1
2023-04-18T14:51:46.508Z,1008.1
2023-04-18T14:53:03.532Z,1008
2023-04-18T14:54:20.568Z,1008.1
2023-04-18T14:55:37.500Z,1008.1
2023-04-18T14:56:54.475Z,1008.1
2023-04-18T14:58:11.529Z,1008.1
2023-04-18T14:59:28.496Z,1008.1
2023-04-18T15:00:45.637Z,1008.1
2023-04-18T15:02:02.578Z,1008
2023-04-18T15:03:19.567Z,1008
2023-04-18T15:04:36.648Z,1007.9
2023-04-18T15:05:53.566Z,1008
2023-04-18T15:07:10.524Z,1008
2023-04-18T15:08:27.755Z,1008
2023-04-18T15:09:44.704Z,1008
2023-04-18T15:11:03.628Z,1008.1
2023-04-18T15:12:22.747Z,1008.1
2023-04-18T15:13:41.909Z,1008
2023-04-18T15:14:59.880Z,1008
2023-04-18T15:16:17.876Z,1008
2023-04-18T15:17:34.941Z,1008
2023-04-18T15:18:54.947Z,1008
2023-04-18T15:20:12.946Z,1008
2023-04-18T15:21:34.859Z,1008
2023-04-18T15:22:51.799Z,1008
2023-04-18T15:24:09.961Z,1008
2023-04-18T15:25:28.060Z,1008
2023-04-18T15:26:45.785Z,1008
2023-04-18T15:28:02.888Z,1008
2023-04-18T15:29:21.776Z,1008
2023-04-18T15:30:38.610Z,1008
2023-04-18T15:31:58.479Z,1008
2023-04-18T15:33:15.847Z,1008
2023-04-18T15:34:37.081Z,1008
2023-04-18T15:35:55.937Z,1008
2023-04-18T15:37:13.909Z,1008
2023-04-18T15:38:32.958Z,1008
2023-04-18T15:39:49.121Z,1008
2023-04-18T15:41:09.946Z,1008
2023-04-18T15:42:27.796Z,1008
2023-04-18T15:43:44.882Z,1008
2023-04-18T15:45:02.158Z,1008
2023-04-18T15:46:21.212Z,1008.1
2023-04-18T15:47:38.919Z,1008.1
2023-04-18T15:48:55.733Z,1008.1
2023-04-18T15:50:12.924Z,1008.1
2023-04-18T15:51:30.913Z,1008.1
2023-04-18T15:52:47.796Z,1008.1
2023-04-18T15:54:04.719Z,1008.1
2023-04-18T15:55:22.099Z,1008.1
2023-04-18T15:56:40.932Z,1008
2023-04-18T15:58:00.942Z,1008.1
2023-04-18T15:59:19.345Z,1008.1
2023-04-18T16:00:39.057Z,1008.1
2023-04-18T16:01:58.365Z,1008.1
2023-04-18T16:03:16.101Z,1008.1
2023-04-18T16:04:32.953Z,1008.1
2023-04-18T16:05:53.180Z,1008.1
2023-04-18T16:07:11.127Z,1008.1
2023-04-18T16:08:31.379Z,1008.1
2023-04-18T16:09:47.910Z,1008.1
2023-04-18T16:11:05.899Z,1007.9
2023-04-18T16:12:23.267Z,1008
2023-04-18T16:13:40.970Z,1008